createdAt,value
2022-09-25T00:00:15.803Z,6.64
2022-09-25T00:02:43.783Z,6.52
2022-09-25T00:05:11.766Z,6.53
2022-09-25T00:07:43.539Z,6.42
2022-09-25T00:10:11.564Z,6.22
2022-09-25T00:12:39.688Z,6.35
2022-09-25T00:15:08.351Z,6.28
2022-09-25T00:17:36.453Z,6.16
2022-09-25T00:20:03.881Z,6.12
2022-09-25T00:22:31.735Z,6.03
2022-09-25T00:25:03.638Z,5.88
2022-09-25T00:27:32.618Z,6.15
2022-09-25T00:30:01.412Z,6.08
2022-09-25T00:32:29.281Z,5.93
2022-09-25T00:34:58.163Z,5.80
2022-09-25T00:37:28.599Z,5.84
2022-09-25T00:39:56.995Z,5.84
2022-09-25T00:42:26.609Z,5.69
2022-09-25T00:44:57.945Z,5.77
2022-09-25T00:47:39.334Z,5.62
2022-09-25T00:50:17.833Z,5.49
2022-09-25T00:52:47.151Z,5.42
2022-09-25T00:55:15.918Z,5.47
2022-09-25T00:57:48.156Z,5.81
2022-09-25T01:00:16.940Z,5.68
2022-09-25T01:02:50.125Z,5.57
2022-09-25T01:05:20.920Z,5.68
2022-09-25T01:07:51.328Z,5.46
2022-09-25T01:10:20.451Z,5.39
2022-09-25T01:12:54.174Z,5.44
2022-09-25T01:15:28.666Z,5.84
2022-09-25T01:18:04.358Z,5.51
2022-09-25T01:20:51.480Z,5.56
2022-09-25T01:23:32.517Z,5.48
2022-09-25T01:26:15.576Z,5.66
2022-09-25T01:29:08.068Z,5.50
2022-09-25T01:31:42.833Z,5.34
2022-09-25T01:34:20.394Z,5.32
2022-09-25T01:36:54.185Z,5.34
2022-09-25T01:39:28.692Z,5.47
2022-09-25T01:42:02.317Z,5.59
2022-09-25T01:44:33.629Z,5.32
2022-09-25T01:47:08.884Z,5.27
2022-09-25T01:49:39.706Z,5.19
2022-09-25T01:52:15.501Z,5.54
2022-09-25T01:54:46.812Z,5.28
2022-09-25T01:57:20.208Z,5.39
2022-09-25T01:59:55.383Z,5.33
2022-09-25T02:02:28.195Z,5.20
2022-09-25T02:05:00.355Z,5.10
2022-09-25T02:07:32.197Z,4.94
2022-09-25T02:10:06.862Z,4.89
2022-09-25T02:12:41.144Z,4.78
2022-09-25T02:15:13.908Z,5.01
2022-09-25T02:18:03.602Z,4.89
2022-09-25T02:20:36.494Z,4.73
2022-09-25T02:23:14.152Z,4.58
2022-09-25T02:25:46.151Z,4.60
2022-09-25T02:28:14.056Z,4.63
2022-09-25T02:30:46.085Z,4.58
2022-09-25T02:33:14.133Z,4.58
2022-09-25T02:35:42.341Z,4.96
2022-09-25T02:38:11.229Z,4.93
2022-09-25T02:40:48.597Z,4.96
2022-09-25T02:43:28.926Z,4.76
2022-09-25T02:46:10.527Z,4.69
2022-09-25T02:48:49.857Z,4.53
2022-09-25T02:51:24.870Z,4.64
2022-09-25T02:54:01.155Z,4.82
2022-09-25T02:56:34.788Z,4.82
2022-09-25T02:59:06.772Z,4.70
2022-09-25T03:01:39.824Z,4.68
2022-09-25T03:04:08.591Z,4.86
2022-09-25T03:06:38.577Z,5.01
2022-09-25T03:09:08.876Z,5.03
2022-09-25T03:11:43.811Z,5.06
2022-09-25T03:14:12.016Z,4.89
2022-09-25T03:16:47.532Z,4.57
2022-09-25T03:19:16.112Z,4.43
2022-09-25T03:21:44.147Z,4.82
2022-09-25T03:24:11.984Z,4.55
2022-09-25T03:26:40.536Z,4.45
2022-09-25T03:29:08.739Z,4.26
2022-09-25T03:31:36.554Z,4.25
2022-09-25T03:34:05.854Z,4.26
2022-09-25T03:36:34.255Z,4.31
2022-09-25T03:39:02.623Z,4.21
2022-09-25T03:41:32.631Z,4.62
2022-09-25T03:44:01.236Z,4.53
2022-09-25T03:46:55.755Z,4.46
2022-09-25T03:49:25.731Z,4.28
2022-09-25T03:51:53.629Z,4.19
2022-09-25T03:54:21.478Z,4.25
2022-09-25T03:56:49.474Z,4.44
2022-09-25T03:59:17.778Z,4.69
2022-09-25T04:01:47.567Z,4.90
2022-09-25T04:04:15.474Z,5.09
2022-09-25T04:06:44.766Z,5.31
2022-09-25T04:09:12.805Z,5.53
2022-09-25T04:11:43.877Z,5.61
2022-09-25T04:14:12.551Z,5.33
2022-09-25T04:16:43.660Z,5.38
2022-09-25T04:19:11.672Z,5.17
2022-09-25T04:21:39.577Z,5.25
2022-09-25T04:24:26.337Z,5.04
2022-09-25T04:26:54.343Z,5.13
2022-09-25T04:29:24.788Z,5.05
2022-09-25T04:32:06.608Z,5.19
2022-09-25T04:34:35.028Z,5.30
2022-09-25T04:37:03.732Z,5.35
2022-09-25T04:39:32.993Z,5.27
2022-09-25T04:42:01.026Z,5.23
2022-09-25T04:44:28.873Z,5.25
2022-09-25T04:46:57.179Z,5.20
2022-09-25T04:49:25.012Z,4.98
2022-09-25T04:51:52.828Z,4.89
2022-09-25T04:54:20.662Z,4.74
2022-09-25T04:56:51.066Z,5.11
2022-09-25T04:59:18.933Z,4.90
2022-09-25T05:01:48.592Z,4.84
2022-09-25T05:04:17.481Z,4.81
2022-09-25T05:06:45.320Z,5.01
2022-09-25T05:09:13.208Z,4.74
2022-09-25T05:11:41.090Z,4.52
2022-09-25T05:14:10.312Z,4.31
2022-09-25T05:16:39.445Z,4.48
2022-09-25T05:19:07.450Z,5.05
2022-09-25T05:21:35.405Z,4.82
2022-09-25T05:24:03.979Z,4.43
2022-09-25T05:26:34.433Z,4.37
2022-09-25T05:29:03.801Z,4.49
2022-09-25T05:31:33.787Z,4.82
2022-09-25T05:34:01.818Z,4.33
2022-09-25T05:36:29.795Z,4.26
2022-09-25T05:38:57.706Z,4.25
2022-09-25T05:41:26.535Z,4.14
2022-09-25T05:43:55.221Z,4.17
2022-09-25T05:46:23.188Z,4.27
2022-09-25T05:48:52.469Z,4.50
2022-09-25T05:51:20.187Z,4.83
2022-09-25T05:53:48.622Z,5.00
2022-09-25T05:56:16.411Z,5.00
2022-09-25T05:58:44.976Z,4.96
2022-09-25T06:01:13.626Z,5.12
2022-09-25T06:03:41.492Z,4.99
2022-09-25T06:06:13.751Z,5.10
2022-09-25T06:08:41.729Z,5.02
2022-09-25T06:11:09.936Z,5.15
2022-09-25T06:13:40.321Z,5.53
2022-09-25T06:16:19.298Z,5.44
2022-09-25T06:18:48.094Z,5.48
2022-09-25T06:21:20.244Z,5.77
2022-09-25T06:23:48.751Z,5.74
2022-09-25T06:26:16.591Z,5.83
2022-09-25T06:28:44.792Z,5.93
2022-09-25T06:31:12.823Z,6.61
2022-09-25T06:33:42.070Z,7.51
2022-09-25T06:36:12.869Z,7.63
2022-09-25T06:38:43.211Z,7.59
2022-09-25T06:41:13.874Z,8.34
2022-09-25T06:43:42.256Z,9.70
2022-09-25T06:46:11.353Z,10.12
2022-09-25T06:48:39.505Z,10.84
2022-09-25T06:51:08.708Z,11.02
2022-09-25T06:53:36.745Z,12.04
2022-09-25T06:56:08.991Z,12.28
2022-09-25T06:58:37.026Z,12.51
2022-09-25T07:01:09.929Z,12.68
2022-09-25T07:03:46.574Z,13.19
2022-09-25T07:06:19.849Z,13.33
2022-09-25T07:08:49.152Z,12.94
2022-09-25T07:11:20.075Z,12.59
2022-09-25T07:13:56.872Z,12.67
2022-09-25T07:16:30.779Z,13.20
2022-09-25T07:19:01.106Z,13.59
2022-09-25T07:21:32.445Z,14.20
2022-09-25T07:24:00.586Z,13.86
2022-09-25T07:26:33.938Z,15.12
2022-09-25T07:29:06.657Z,14.84
2022-09-25T07:31:37.995Z,14.42
2022-09-25T07:34:09.482Z,14.53
2022-09-25T07:36:38.582Z,16.01
2022-09-25T07:39:07.301Z,14.70
2022-09-25T07:41:37.146Z,14.52
2022-09-25T07:44:27.317Z,14.89
2022-09-25T07:46:53.602Z,14.13
2022-09-25T07:49:21.468Z,15.09
2022-09-25T07:51:49.424Z,14.56
2022-09-25T07:54:17.372Z,14.73
2022-09-25T07:56:54.409Z,16.12
2022-09-25T07:59:22.379Z,16.25
2022-09-25T08:01:53.896Z,15.82
2022-09-25T08:04:22.282Z,17.17
2022-09-25T08:06:50.196Z,17.10
2022-09-25T08:09:18.113Z,17.77
2022-09-25T08:11:47.455Z,17.63
2022-09-25T08:14:15.801Z,18.29
2022-09-25T08:16:44.068Z,18.20
2022-09-25T08:19:12.368Z,19.15
2022-09-25T08:21:40.595Z,18.68
2022-09-25T08:24:11.992Z,18.54
2022-09-25T08:26:40.154Z,17.80
2022-09-25T08:29:13.443Z,17.04
2022-09-25T08:31:41.438Z,16.30
2022-09-25T08:34:39.031Z,16.07
2022-09-25T08:36:58.380Z,15.45
2022-09-25T08:39:26.397Z,15.78
2022-09-25T08:41:56.154Z,15.86
2022-09-25T08:44:29.603Z,16.32
2022-09-25T08:47:19.998Z,16.22
2022-09-25T08:49:59.089Z,15.51
2022-09-25T08:52:27.229Z,14.97
2022-09-25T08:54:55.527Z,14.70
2022-09-25T08:57:31.418Z,15.45
2022-09-25T09:00:07.720Z,15.35
2022-09-25T09:02:42.335Z,15.53
2022-09-25T09:05:18.826Z,16.04
2022-09-25T09:07:53.394Z,15.94
2022-09-25T09:10:35.232Z,17.08
2022-09-25T09:13:12.259Z,16.41
2022-09-25T09:15:45.341Z,16.11
2022-09-25T09:18:22.390Z,17.11
2022-09-25T09:20:54.406Z,16.68
2022-09-25T09:23:24.713Z,15.83
2022-09-25T09:26:04.324Z,15.38
2022-09-25T09:29:03.389Z,14.62
2022-09-25T09:31:42.624Z,14.82
2022-09-25T09:35:04.260Z,14.46
2022-09-25T09:37:40.490Z,14.70
2022-09-25T09:40:25.862Z,14.84
2022-09-25T09:43:03.750Z,15.04
2022-09-25T09:45:42.151Z,15.11
2022-09-25T09:48:22.715Z,15.75
2022-09-25T09:50:53.243Z,16.34
2022-09-25T09:53:30.946Z,16.50
2022-09-25T09:56:05.690Z,16.24
2022-09-25T09:58:45.881Z,15.82
2022-09-25T10:01:37.055Z,16.25
2022-09-25T10:04:08.205Z,15.67
2022-09-25T10:06:41.105Z,15.90
2022-09-25T10:09:15.316Z,15.79
2022-09-25T10:11:50.980Z,16.41
2022-09-25T10:14:25.338Z,16.46
2022-09-25T10:16:55.623Z,16.38
2022-09-25T10:19:29.461Z,16.36
2022-09-25T10:22:04.270Z,16.40
2022-09-25T10:24:53.345Z,16.77
2022-09-25T10:27:27.897Z,16.55
2022-09-25T10:30:21.123Z,15.96
2022-09-25T10:33:00.962Z,16.62
2022-09-25T10:35:48.893Z,16.11
2022-09-25T10:38:28.243Z,16.32
2022-09-25T10:41:04.720Z,15.52
2022-09-25T10:43:35.351Z,15.51
2022-09-25T10:46:53.730Z,15.64
2022-09-25T10:49:42.486Z,15.79
2022-09-25T10:52:14.490Z,15.80
2022-09-25T10:54:46.269Z,15.81
2022-09-25T10:57:25.588Z,15.58
2022-09-25T10:59:55.814Z,15.86
2022-09-25T11:02:39.178Z,15.01
2022-09-25T11:05:23.546Z,15.74
2022-09-25T11:08:01.324Z,15.89
2022-09-25T11:10:43.298Z,16.28
2022-09-25T11:13:26.211Z,17.32
2022-09-25T11:15:59.892Z,18.93
2022-09-25T11:18:42.313Z,19.94
2022-09-25T11:21:33.578Z,18.90
2022-09-25T11:24:14.538Z,19.94
2022-09-25T11:26:52.893Z,19.68
2022-09-25T11:29:36.697Z,18.96
2022-09-25T11:32:14.142Z,18.96
2022-09-25T11:35:04.595Z,18.91
2022-09-25T11:37:41.209Z,20.72
2022-09-25T11:41:00.592Z,21.35
2022-09-25T11:43:43.026Z,21.93
2022-09-25T11:46:22.253Z,21.57
2022-09-25T11:49:01.196Z,22.28
2022-09-25T11:52:03.417Z,20.43
2022-09-25T11:54:43.864Z,19.78
2022-09-25T11:57:18.349Z,19.26
2022-09-25T12:00:04.106Z,17.77
2022-09-25T12:02:41.041Z,16.73
2022-09-25T12:05:36.286Z,16.13
2022-09-25T12:08:17.870Z,15.59
2022-09-25T12:11:02.781Z,15.41
2022-09-25T12:13:40.704Z,15.18
2022-09-25T12:16:19.875Z,15.33
2022-09-25T12:18:57.680Z,15.24
2022-09-25T12:21:34.577Z,15.11
2022-09-25T12:24:10.326Z,15.26
2022-09-25T12:26:48.509Z,15.80
2022-09-25T12:29:30.909Z,16.38
2022-09-25T12:32:09.838Z,18.42
2022-09-25T12:35:15.597Z,19.60
2022-09-25T12:37:47.450Z,20.77
2022-09-25T12:40:34.204Z,22.17
2022-09-25T12:43:18.831Z,21.22
2022-09-25T12:45:58.883Z,21.30
2022-09-25T12:48:40.175Z,23.87
2022-09-25T12:51:16.428Z,22.69
2022-09-25T12:53:50.606Z,23.23
2022-09-25T12:56:27.147Z,23.53
2022-09-25T12:59:13.690Z,24.84
2022-09-25T13:01:57.447Z,23.71
2022-09-25T13:04:49.519Z,22.87
2022-09-25T13:07:28.683Z,22.26
2022-09-25T13:10:30.910Z,19.54
2022-09-25T13:13:04.047Z,18.68
2022-09-25T13:15:35.203Z,17.67
2022-09-25T13:18:06.466Z,17.68
2022-09-25T13:20:50.174Z,18.12
2022-09-25T13:23:30.068Z,18.89
2022-09-25T13:26:11.927Z,19.34
2022-09-25T13:28:42.501Z,19.83
2022-09-25T13:31:13.613Z,18.05
2022-09-25T13:33:52.403Z,17.16
2022-09-25T13:36:39.323Z,16.61
2022-09-25T13:42:25.540Z,17.03
2022-09-25T13:45:25.903Z,17.51
2022-09-25T13:48:04.481Z,17.49
2022-09-25T13:50:42.900Z,17.87
2022-09-25T13:53:36.589Z,17.87
2022-09-25T13:56:30.525Z,17.57
2022-09-25T13:59:24.441Z,17.10
2022-09-25T14:01:58.383Z,17.76
2022-09-25T14:04:37.458Z,18.27
2022-09-25T14:07:18.956Z,17.69
2022-09-25T14:09:52.861Z,17.51
2022-09-25T14:12:28.701Z,18.06
2022-09-25T14:15:01.105Z,17.70
2022-09-25T14:17:34.883Z,18.62
2022-09-25T14:20:07.546Z,19.60
2022-09-25T14:22:44.614Z,18.57
2022-09-25T14:25:36.451Z,18.32
2022-09-25T14:28:17.266Z,17.20
2022-09-25T14:30:52.789Z,16.85
2022-09-25T14:33:45.474Z,16.48
2022-09-25T14:36:29.111Z,16.95
2022-09-25T14:39:29.311Z,17.59
2022-09-25T14:42:16.075Z,18.01
2022-09-25T14:45:21.088Z,20.72
2022-09-25T14:47:51.737Z,22.52
2022-09-25T14:50:23.596Z,23.30
2022-09-25T14:53:00.517Z,23.56
2022-09-25T14:55:53.503Z,23.70
2022-09-25T14:58:27.339Z,23.58
2022-09-25T15:01:03.583Z,21.61
2022-09-25T15:04:06.876Z,21.74
2022-09-25T15:06:58.216Z,23.51
2022-09-25T15:09:32.076Z,22.88
2022-09-25T15:12:19.968Z,21.98
2022-09-25T15:15:07.981Z,22.19
2022-09-25T15:17:47.800Z,21.64
2022-09-25T15:20:19.526Z,19.79
2022-09-25T15:22:58.547Z,18.56
2022-09-25T15:25:31.242Z,17.26
2022-09-25T15:28:01.409Z,16.70
2022-09-25T15:30:31.870Z,16.27
2022-09-25T15:33:01.057Z,15.79
2022-09-25T15:35:30.739Z,15.62
2022-09-25T15:38:12.190Z,15.74
2022-09-25T15:40:41.392Z,15.59
2022-09-25T15:43:15.018Z,15.48
2022-09-25T15:45:46.291Z,15.24
2022-09-25T15:48:24.319Z,15.53
2022-09-25T15:50:54.332Z,15.42
2022-09-25T15:53:27.733Z,15.62
2022-09-25T15:56:20.097Z,15.46
2022-09-25T15:58:54.169Z,15.29
2022-09-25T16:01:43.281Z,15.18
2022-09-25T16:07:25.128Z,14.92
2022-09-25T16:09:54.342Z,15.13
2022-09-25T16:12:28.207Z,15.03
2022-09-25T16:14:59.087Z,15.03
2022-09-25T16:17:34.552Z,14.85
2022-09-25T16:20:06.762Z,14.87
2022-09-25T16:22:42.377Z,14.94
2022-09-25T16:25:17.497Z,14.87
2022-09-25T16:27:47.609Z,14.83
2022-09-25T16:30:22.745Z,14.73
2022-09-25T16:32:53.737Z,14.47
2022-09-25T16:35:26.088Z,14.28
2022-09-25T16:37:55.060Z,14.02
2022-09-25T16:40:33.551Z,13.87
2022-09-25T16:43:02.463Z,13.70
2022-09-25T16:45:34.282Z,13.62
2022-09-25T16:48:23.947Z,13.55
2022-09-25T16:50:52.068Z,13.47
2022-09-25T16:53:19.926Z,13.42
2022-09-25T16:55:53.400Z,13.18
2022-09-25T16:58:22.350Z,13.14
2022-09-25T17:00:52.091Z,13.02
2022-09-25T17:03:20.824Z,13.11
2022-09-25T17:05:49.490Z,13.20
2022-09-25T17:08:20.257Z,13.02
2022-09-25T17:10:56.938Z,13.08
2022-09-25T17:13:30.529Z,12.96
2022-09-25T17:15:59.841Z,12.98
2022-09-25T17:18:27.700Z,12.83
2022-09-25T17:20:57.691Z,12.86
2022-09-25T17:23:27.289Z,12.72
2022-09-25T17:26:00.841Z,12.50
2022-09-25T17:28:29.418Z,12.26
2022-09-25T17:30:57.994Z,12.00
2022-09-25T17:33:27.973Z,11.84
2022-09-25T17:36:02.671Z,11.71
2022-09-25T17:38:32.355Z,11.53
2022-09-25T17:41:05.581Z,11.53
2022-09-25T17:43:34.916Z,11.47
2022-09-25T17:46:04.561Z,11.42
2022-09-25T17:48:34.140Z,11.30
2022-09-25T17:51:27.394Z,11.10
2022-09-25T17:53:59.444Z,10.90
2022-09-25T17:56:29.557Z,11.03
2022-09-25T17:58:57.835Z,10.77
2022-09-25T18:01:28.590Z,10.58
2022-09-25T18:04:00.056Z,10.34
2022-09-25T18:06:30.463Z,10.13
2022-09-25T18:08:58.529Z,10.05
2022-09-25T18:11:27.369Z,9.87
2022-09-25T18:13:57.006Z,9.74
2022-09-25T18:16:29.713Z,9.54
2022-09-25T18:19:16.925Z,9.54
2022-09-25T18:22:02.308Z,9.38
2022-09-25T18:24:32.218Z,9.34
2022-09-25T18:27:03.095Z,9.23
2022-09-25T18:29:31.096Z,9.05
2022-09-25T18:31:59.183Z,9.00
2022-09-25T18:34:29.596Z,8.97
2022-09-25T18:37:07.100Z,8.83
2022-09-25T18:39:34.910Z,8.82
2022-09-25T18:42:02.898Z,8.80
2022-09-25T18:44:38.558Z,8.85
2022-09-25T18:47:08.190Z,8.77
2022-09-25T18:49:37.987Z,8.84
2022-09-25T18:52:09.258Z,9.08
2022-09-25T18:54:37.211Z,9.19
2022-09-25T18:57:05.229Z,8.97
2022-09-25T18:59:33.142Z,8.94
2022-09-25T19:02:01.940Z,8.96
2022-09-25T19:04:30.288Z,8.99
2022-09-25T19:06:59.668Z,9.09
2022-09-25T19:09:29.258Z,8.99
2022-09-25T19:11:57.158Z,9.17
2022-09-25T19:14:25.323Z,9.10
2022-09-25T19:16:53.672Z,9.36
2022-09-25T19:19:21.813Z,9.24
2022-09-25T19:21:52.498Z,9.38
2022-09-25T19:24:21.873Z,9.15
2022-09-25T19:26:50.492Z,9.10
2022-09-25T19:29:18.315Z,9.08
2022-09-25T19:31:46.719Z,9.26
2022-09-25T19:34:14.696Z,9.44
2022-09-25T19:36:42.562Z,9.52
2022-09-25T19:39:10.495Z,9.57
2022-09-25T19:41:41.073Z,9.47
2022-09-25T19:44:13.620Z,9.52
2022-09-25T19:46:42.734Z,9.51
2022-09-25T19:49:11.122Z,9.41
2022-09-25T19:51:41.259Z,9.36
2022-09-25T19:54:16.488Z,9.19
2022-09-25T19:56:46.314Z,9.24
2022-09-25T19:59:17.480Z,9.07
2022-09-25T20:01:46.108Z,9.09
2022-09-25T20:04:18.614Z,9.03
2022-09-25T20:06:47.402Z,8.76
2022-09-25T20:09:15.646Z,8.76
2022-09-25T20:11:45.809Z,8.82
2022-09-25T20:14:16.085Z,8.79
2022-09-25T20:16:53.465Z,8.88
2022-09-25T20:19:22.042Z,8.89
2022-09-25T20:21:52.905Z,8.84
2022-09-25T20:24:21.148Z,8.83
2022-09-25T20:27:00.827Z,8.87
2022-09-25T20:29:29.232Z,8.85
2022-09-25T20:31:57.211Z,8.75
2022-09-25T20:34:25.315Z,8.82
2022-09-25T20:36:53.348Z,8.71
2022-09-25T20:39:23.186Z,8.62
2022-09-25T20:41:52.414Z,8.56
2022-09-25T20:44:20.380Z,8.44
2022-09-25T20:46:48.664Z,8.75
2022-09-25T20:49:20.315Z,8.81
2022-09-25T20:51:48.288Z,8.91
2022-09-25T20:54:16.403Z,8.92
2022-09-25T20:56:45.463Z,8.98
2022-09-25T20:59:16.189Z,8.92
2022-09-25T21:01:44.242Z,9.05
2022-09-25T21:04:12.138Z,9.04
2022-09-25T21:06:42.157Z,9.00
2022-09-25T21:09:15.822Z,8.97
2022-09-25T21:11:44.194Z,8.89
2022-09-25T21:14:16.665Z,9.06
2022-09-25T21:16:47.386Z,9.22
2022-09-25T21:19:19.712Z,9.37
2022-09-25T21:21:48.468Z,9.49
2022-09-25T21:24:19.086Z,9.48
2022-09-25T21:26:47.583Z,9.57
2022-09-25T21:29:18.179Z,9.63
2022-09-25T21:31:53.457Z,9.67
2022-09-25T21:34:21.402Z,9.81
2022-09-25T21:36:49.317Z,9.79
2022-09-25T21:39:27.784Z,9.78
2022-09-25T21:41:55.901Z,9.81
2022-09-25T21:44:25.643Z,9.89
2022-09-25T21:46:53.780Z,9.84
2022-09-25T21:49:23.006Z,9.94
2022-09-25T21:51:51.637Z,9.96
2022-09-25T21:54:20.705Z,9.95
2022-09-25T21:56:49.383Z,10.02
2022-09-25T21:59:18.195Z,10.03
2022-09-25T22:01:47.514Z,10.04
2022-09-25T22:04:16.205Z,10.08
2022-09-25T22:06:46.997Z,10.06
2022-09-25T22:09:16.822Z,10.15
2022-09-25T22:11:45.667Z,10.14
2022-09-25T22:14:16.021Z,10.20
2022-09-25T22:16:50.380Z,10.30
2022-09-25T22:19:20.738Z,10.35
2022-09-25T22:21:50.842Z,10.32
2022-09-25T22:24:19.136Z,10.37
2022-09-25T22:26:48.880Z,10.37
2022-09-25T22:29:17.589Z,10.38
2022-09-25T22:31:45.823Z,10.35
2022-09-25T22:34:21.388Z,10.37
2022-09-25T22:36:53.556Z,10.43
2022-09-25T22:39:24.444Z,10.49
2022-09-25T22:41:53.830Z,10.51
2022-09-25T22:44:22.659Z,10.58
2022-09-25T22:46:50.507Z,10.66
2022-09-25T22:49:19.711Z,10.69
2022-09-25T22:51:47.810Z,10.63
2022-09-25T22:54:16.056Z,10.53
2022-09-25T22:56:44.952Z,10.34
2022-09-25T22:59:16.203Z,10.27
2022-09-25T23:01:47.926Z,10.26
2022-09-25T23:04:18.697Z,10.16
2022-09-25T23:06:48.612Z,10.20
2022-09-25T23:09:18.707Z,10.12
2022-09-25T23:11:46.926Z,9.99
2022-09-25T23:14:17.142Z,10.15
2022-09-25T23:16:46.141Z,10.12
2022-09-25T23:19:15.558Z,10.09
2022-09-25T23:21:43.891Z,10.14
2022-09-25T23:24:15.396Z,10.19
2022-09-25T23:26:43.685Z,10.11
2022-09-25T23:29:13.053Z,10.17
2022-09-25T23:31:42.233Z,10.15
2022-09-25T23:34:11.823Z,10.11
2022-09-25T23:36:39.959Z,10.16
2022-09-25T23:39:09.869Z,10.21
2022-09-25T23:41:40.725Z,10.18
2022-09-25T23:44:10.845Z,10.13
2022-09-25T23:46:40.683Z,10.13
2022-09-25T23:49:09.136Z,10.11
2022-09-25T23:51:37.076Z,10.04
2022-09-25T23:54:05.311Z,10.04
2022-09-25T23:56:34.634Z,9.90
2022-09-25T23:59:05.238Z,10.02
